createdAt,value
2018-06-17T00:01:45.200Z,100365.44
2018-06-17T00:04:15.426Z,100366.34
2018-06-17T00:06:45.784Z,100356.42
2018-06-17T00:09:16.272Z,100362.38
2018-06-17T00:11:46.829Z,100363.88
2018-06-17T00:14:17.109Z,100370.61
2018-06-17T00:16:47.398Z,100378.52
2018-06-17T00:19:17.828Z,100377.84
2018-06-17T00:21:48.182Z,100381.84
2018-06-17T00:24:18.542Z,100388.94
2018-06-17T00:26:48.947Z,100380.60
2018-06-17T00:29:19.249Z,100384.12
2018-06-17T00:31:49.797Z,100386.19
2018-06-17T00:34:20.109Z,100383.64
2018-06-17T00:36:50.540Z,100383.27
2018-06-17T00:39:20.862Z,100385.59
2018-06-17T00:41:51.360Z,100388.75
2018-06-17T00:44:21.837Z,100388.17
2018-06-17T00:46:52.205Z,100387.94
2018-06-17T00:49:22.555Z,100390.00
2018-06-17T00:51:53.069Z,100391.70
2018-06-17T00:54:23.584Z,100378.91
2018-06-17T00:58:13.714Z,100370.64
2018-06-17T01:00:44.033Z,100369.55
2018-06-17T01:03:14.612Z,100369.55
2018-06-17T01:05:45.154Z,100379.75
2018-06-17T01:08:15.635Z,100377.70
2018-06-17T01:10:45.936Z,100378.83
2018-06-17T01:13:16.425Z,100377.13
2018-06-17T01:15:46.751Z,100379.59
2018-06-17T01:18:17.087Z,100385.06
2018-06-17T01:20:47.378Z,100387.17
2018-06-17T01:23:17.684Z,100391.91
2018-06-17T01:25:48.041Z,100389.97
2018-06-17T01:28:18.336Z,100385.73
2018-06-17T01:30:48.631Z,100389.41
2018-06-17T01:33:19.040Z,100390.25
2018-06-17T01:35:49.375Z,100391.22
2018-06-17T01:38:19.688Z,100379.81
2018-06-17T01:40:50.007Z,100377.02
2018-06-17T01:43:20.543Z,100377.87
2018-06-17T01:45:50.866Z,100378.36
2018-06-17T01:48:21.270Z,100377.99
2018-06-17T01:50:51.621Z,100389.65
2018-06-17T01:53:22.132Z,100394.78
2018-06-17T01:55:52.504Z,100400.73
2018-06-17T01:58:22.765Z,100401.86
2018-06-17T02:00:53.191Z,100404.90
2018-06-17T02:03:28.697Z,100411.00
2018-06-17T02:06:04.037Z,100415.28
2018-06-17T02:08:39.759Z,100421.02
2018-06-17T02:11:15.435Z,100415.92
2018-06-17T02:13:45.758Z,100418.95
2018-06-17T02:16:16.231Z,100415.56
2018-06-17T02:18:46.391Z,100426.48
2018-06-17T02:21:16.639Z,100419.23
2018-06-17T02:23:46.895Z,100429.39
2018-06-17T02:26:16.982Z,100425.06
2018-06-17T02:28:47.414Z,100419.35
2018-06-17T02:31:17.484Z,100418.50
2018-06-17T02:33:47.768Z,100423.23
2018-06-17T02:36:18.047Z,100414.98
2018-06-17T02:38:48.320Z,100422.27
2018-06-17T02:41:18.621Z,100424.23
2018-06-17T02:43:49.063Z,100424.96
2018-06-17T02:46:24.632Z,100418.20
2018-06-17T02:50:03.062Z,100413.50
2018-06-17T02:52:38.687Z,100420.05
2018-06-17T02:55:09.142Z,100417.28
2018-06-17T02:57:39.609Z,100419.00
2018-06-17T03:00:10.021Z,100422.06
2018-06-17T03:02:40.312Z,100430.91
2018-06-17T03:05:10.632Z,100427.77
2018-06-17T03:07:41.063Z,100437.86
2018-06-17T03:10:11.380Z,100432.77
2018-06-17T03:12:41.682Z,100432.66
2018-06-17T03:15:12.084Z,100438.02
2018-06-17T03:17:42.412Z,100445.06
2018-06-17T03:20:12.545Z,100444.59
2018-06-17T03:22:42.753Z,100442.04
2018-06-17T03:25:18.277Z,100437.82
2018-06-17T03:27:53.912Z,100449.57
2018-06-17T03:30:29.361Z,100455.16
2018-06-17T03:33:04.524Z,100454.06
2018-06-17T03:35:40.045Z,100454.32
2018-06-17T03:38:10.394Z,100453.22
2018-06-17T03:40:40.933Z,100461.00
2018-06-17T03:43:11.480Z,100458.44
2018-06-17T03:45:41.852Z,100459.30
2018-06-17T03:48:12.123Z,100469.26
2018-06-17T03:50:42.403Z,100472.77
2018-06-17T03:53:12.745Z,100472.38
2018-06-17T03:55:43.084Z,100470.92
2018-06-17T03:58:13.773Z,100482.55
2018-06-17T04:00:43.858Z,100475.52
2018-06-17T04:03:14.215Z,100488.47
2018-06-17T04:05:44.425Z,100489.91
2018-06-17T04:08:14.877Z,100494.05
2018-06-17T04:10:45.343Z,100494.27
2018-06-17T04:13:15.635Z,100486.91
2018-06-17T04:15:45.911Z,100496.57
2018-06-17T04:18:16.361Z,100500.23
2018-06-17T04:20:46.667Z,100500.23
2018-06-17T04:23:16.772Z,100493.42
2018-06-17T04:25:47.069Z,100491.49
2018-06-17T04:28:17.348Z,100494.15
2018-06-17T04:30:47.645Z,100495.84
2018-06-17T04:33:17.904Z,100503.23
2018-06-17T04:35:48.234Z,100500.79
2018-06-17T04:38:18.549Z,100496.56
2018-06-17T04:40:48.863Z,100491.34
2018-06-17T04:43:19.194Z,100498.86
2018-06-17T04:45:49.425Z,100495.60
2018-06-17T04:48:19.839Z,100501.16
2018-06-17T04:50:50.245Z,100500.20
2018-06-17T04:53:20.826Z,100506.38
2018-06-17T04:55:51.170Z,100510.00
2018-06-17T04:58:21.519Z,100507.08
2018-06-17T05:00:51.632Z,100512.41
2018-06-17T05:03:21.811Z,100521.62
2018-06-17T05:05:52.191Z,100520.17
2018-06-17T05:08:22.570Z,100521.40
2018-06-17T05:10:53.029Z,100520.19
2018-06-17T05:13:23.094Z,100521.75
2018-06-17T05:15:53.283Z,100519.34
2018-06-17T05:18:23.604Z,100523.23
2018-06-17T05:20:53.951Z,100524.69
2018-06-17T05:23:24.215Z,100534.02
2018-06-17T05:25:54.564Z,100539.84
2018-06-17T05:28:24.706Z,100546.84
2018-06-17T05:30:55.005Z,100547.95
2018-06-17T05:33:25.431Z,100549.33
2018-06-17T05:35:56.460Z,100545.70
2018-06-17T05:38:27.954Z,100546.53
2018-06-17T05:40:58.281Z,100540.72
2018-06-17T05:43:28.579Z,100548.13
2018-06-17T05:45:59.512Z,100545.20
2018-06-17T05:48:29.769Z,100551.02
2018-06-17T05:51:00.222Z,100546.30
2018-06-17T05:53:30.522Z,100552.59
2018-06-17T05:56:00.845Z,100548.59
2018-06-17T05:58:31.180Z,100552.92
2018-06-17T06:01:01.603Z,100558.51
2018-06-17T06:03:32.003Z,100558.75
2018-06-17T06:06:02.376Z,100555.59
2018-06-17T06:08:32.678Z,100553.63
2018-06-17T06:11:03.031Z,100562.84
2018-06-17T06:13:33.390Z,100565.55
2018-06-17T06:16:03.730Z,100561.92
2018-06-17T06:18:34.280Z,100558.19
2018-06-17T06:21:04.740Z,100552.37
2018-06-17T06:23:35.072Z,100557.38
2018-06-17T06:26:05.477Z,100561.85
2018-06-17T06:28:36.295Z,100555.61
2018-06-17T06:31:06.296Z,100556.64
2018-06-17T06:33:36.198Z,100554.50
2018-06-17T06:36:07.037Z,100556.52
2018-06-17T06:38:37.434Z,100559.81
2018-06-17T06:41:07.736Z,100558.22
2018-06-17T06:43:38.096Z,100566.47
2018-06-17T06:46:08.471Z,100568.91
2018-06-17T06:48:38.835Z,100573.27
2018-06-17T06:51:09.217Z,100573.40
2018-06-17T06:53:39.668Z,100577.92
2018-06-17T06:56:09.979Z,100573.41
2018-06-17T06:58:40.387Z,100582.87
2018-06-17T07:01:10.775Z,100583.69
2018-06-17T07:03:58.058Z,100582.91
2018-06-17T07:06:45.129Z,100581.44
2018-06-17T07:09:31.288Z,100588.67
2018-06-17T07:12:01.643Z,100584.53
2018-06-17T07:14:32.245Z,100595.27
2018-06-17T07:17:19.448Z,100595.65
2018-06-17T07:19:49.933Z,100593.66
2018-06-17T07:22:20.354Z,100593.28
2018-06-17T07:24:51.246Z,100595.83
2018-06-17T07:27:38.508Z,100592.30
2018-06-17T07:30:08.919Z,100590.20
2018-06-17T07:32:39.980Z,100590.97
2018-06-17T07:35:10.316Z,100593.13
2018-06-17T07:37:40.733Z,100583.84
2018-06-17T07:40:26.878Z,100596.81
2018-06-17T07:42:57.303Z,100590.25
2018-06-17T07:45:28.130Z,100591.61
2018-06-17T07:47:58.407Z,100593.50
2018-06-17T07:50:45.779Z,100590.61
2018-06-17T07:53:19.986Z,100591.18
2018-06-17T07:55:50.313Z,100586.48
2018-06-17T07:58:20.657Z,100589.55
2018-06-17T08:00:51.064Z,100588.28
2018-06-17T08:03:21.498Z,100584.26
2018-06-17T08:05:51.825Z,100588.72
2018-06-17T08:08:22.230Z,100583.94
2018-06-17T08:10:52.810Z,100592.11
2018-06-17T08:13:23.081Z,100584.00
2018-06-17T08:15:53.371Z,100591.11
2018-06-17T08:18:23.704Z,100575.91
2018-06-17T08:20:54.024Z,100582.28
2018-06-17T08:23:24.393Z,100580.55
2018-06-17T08:25:54.763Z,100581.49
2018-06-17T08:28:25.140Z,100577.34
2018-06-17T08:30:55.581Z,100573.88
2018-06-17T08:33:25.941Z,100574.64
2018-06-17T08:35:56.724Z,100572.77
2018-06-17T08:38:27.972Z,100566.69
2018-06-17T08:40:58.250Z,100576.27
2018-06-17T08:43:28.625Z,100575.27
2018-06-17T08:45:58.997Z,100581.19
2018-06-17T08:48:29.371Z,100584.19
2018-06-17T08:50:59.804Z,100586.58
2018-06-17T08:53:30.163Z,100581.88
2018-06-17T08:56:00.519Z,100582.44
2018-06-17T08:58:30.959Z,100590.66
2018-06-17T09:01:01.307Z,100589.09
2018-06-17T09:03:31.620Z,100590.88
2018-06-17T09:06:02.049Z,100585.89
2018-06-17T09:08:32.363Z,100583.39
2018-06-17T09:11:02.782Z,100590.99
2018-06-17T09:13:33.129Z,100586.73
2018-06-17T09:16:03.109Z,100587.61
2018-06-17T09:18:33.521Z,100596.73
2018-06-17T09:21:03.907Z,100589.09
2018-06-17T09:23:34.311Z,100588.70
2018-06-17T09:26:04.736Z,100596.78
2018-06-17T09:28:36.112Z,100591.54
2018-06-17T09:31:06.607Z,100592.83
2018-06-17T09:33:36.986Z,100592.69
2018-06-17T09:36:07.424Z,100596.87
2018-06-17T09:38:38.791Z,100595.92
2018-06-17T09:41:09.356Z,100592.11
2018-06-17T09:43:39.865Z,100589.78
2018-06-17T09:46:10.231Z,100588.78
2018-06-17T09:48:40.722Z,100592.14
2018-06-17T09:51:11.032Z,100596.68
2018-06-17T09:53:41.391Z,100593.80
2018-06-17T09:56:12.618Z,100596.45
2018-06-17T09:58:42.928Z,100597.11
2018-06-17T10:01:13.479Z,100597.72
2018-06-17T10:03:44.037Z,100606.84
2018-06-17T10:06:14.529Z,100599.80
2018-06-17T10:08:45.048Z,100597.63
2018-06-17T10:11:15.629Z,100597.14
2018-06-17T10:13:46.540Z,100603.22
2018-06-17T10:16:17.206Z,100604.39
2018-06-17T10:18:47.518Z,100598.69
2018-06-17T10:21:17.820Z,100606.41
2018-06-17T10:23:48.378Z,100600.69
2018-06-17T10:26:18.669Z,100598.34
2018-06-17T10:28:49.080Z,100597.64
2018-06-17T10:31:19.666Z,100596.28
2018-06-17T10:33:49.803Z,100591.89
2018-06-17T10:36:20.218Z,100595.95
2018-06-17T10:37:04.516Z,100586.36
2018-06-17T10:37:58.555Z,100587.58
2018-06-17T10:38:44.945Z,100589.78
2018-06-17T10:39:20.398Z,100588.95
2018-06-17T10:39:55.825Z,100581.92
2018-06-17T10:42:24.172Z,100588.95
2018-06-17T10:44:29.662Z,100586.08
2018-06-17T10:46:35.048Z,100581.83
2018-06-17T10:48:40.481Z,100588.53
2018-06-17T10:50:45.860Z,100582.07
2018-06-17T10:52:51.247Z,100579.71
2018-06-17T10:54:56.543Z,100582.18
2018-06-17T10:57:01.975Z,100582.51
2018-06-17T10:59:07.544Z,100584.02
2018-06-17T11:01:12.844Z,100578.47
2018-06-17T11:03:18.307Z,100580.63
2018-06-17T11:05:23.746Z,100577.25
2018-06-17T11:07:29.248Z,100575.86
2018-06-17T11:09:34.600Z,100573.34
2018-06-17T11:11:40.001Z,100570.84
2018-06-17T11:13:45.449Z,100574.62
2018-06-17T11:15:51.046Z,100571.86
2018-06-17T11:17:56.503Z,100572.22
2018-06-17T11:20:02.413Z,100574.40
2018-06-17T11:22:08.077Z,100574.50
2018-06-17T11:24:13.503Z,100576.30
2018-06-17T11:26:19.717Z,100577.45
2018-06-17T11:28:25.972Z,100570.90
2018-06-17T11:30:31.026Z,100574.45
2018-06-17T11:32:36.277Z,100579.86
2018-06-17T11:34:41.664Z,100574.97
2018-06-17T11:36:46.671Z,100578.99
2018-06-17T11:38:52.310Z,100578.42
2018-06-17T11:40:58.154Z,100578.90
2018-06-17T11:43:03.512Z,100578.17
2018-06-17T11:45:08.946Z,100582.06
2018-06-17T11:47:14.417Z,100573.98
2018-06-17T11:49:19.846Z,100579.74
2018-06-17T11:51:25.931Z,100572.37
2018-06-17T11:53:31.401Z,100580.80
2018-06-17T11:55:36.799Z,100582.64
2018-06-17T11:57:42.155Z,100578.27
2018-06-17T11:59:47.584Z,100581.48
2018-06-17T12:01:52.968Z,100584.74
2018-06-17T12:03:58.377Z,100583.97
2018-06-17T12:06:03.878Z,100574.11
2018-06-17T12:08:10.983Z,100573.30
2018-06-17T12:10:16.408Z,100566.13
2018-06-17T12:12:22.608Z,100563.16
2018-06-17T12:14:29.472Z,100564.17
2018-06-17T12:16:34.877Z,100564.82
2018-06-17T12:18:40.483Z,100565.49
2018-06-17T12:20:45.910Z,100577.40
2018-06-17T12:22:51.283Z,100574.78
2018-06-17T12:24:57.161Z,100575.08
2018-06-17T12:27:02.568Z,100572.62
2018-06-17T12:29:08.536Z,100573.89
2018-06-17T12:31:13.898Z,100572.31
2018-06-17T12:33:19.259Z,100564.72
2018-06-17T12:35:26.160Z,100567.39
2018-06-17T12:37:31.577Z,100570.35
2018-06-17T12:39:37.881Z,100571.32
2018-06-17T12:41:43.233Z,100569.45
2018-06-17T12:43:48.718Z,100571.47
2018-06-17T12:45:54.300Z,100573.25
2018-06-17T12:47:59.705Z,100569.48
2018-06-17T12:50:05.247Z,100569.75
2018-06-17T12:52:11.688Z,100572.55
2018-06-17T12:54:17.514Z,100571.88
2018-06-17T12:56:22.884Z,100574.21
2018-06-17T12:58:29.406Z,100575.73
2018-06-17T13:00:35.035Z,100575.94
2018-06-17T13:02:40.541Z,100573.08
2018-06-17T13:04:46.071Z,100574.95
2018-06-17T13:06:52.387Z,100571.41
2018-06-17T13:08:57.832Z,100569.86
2018-06-17T13:11:03.570Z,100566.67
2018-06-17T13:13:08.955Z,100569.57
2018-06-17T13:15:14.374Z,100573.08
2018-06-17T13:17:19.919Z,100572.44
2018-06-17T13:19:25.354Z,100576.67
2018-06-17T13:21:30.781Z,100567.41
2018-06-17T13:23:36.211Z,100567.70
2018-06-17T13:25:41.878Z,100574.27
2018-06-17T13:27:47.411Z,100565.01
2018-06-17T13:29:52.916Z,100565.01
2018-06-17T13:31:58.286Z,100567.03
2018-06-17T13:34:04.814Z,100562.85
2018-06-17T13:36:11.297Z,100561.39
2018-06-17T13:38:16.850Z,100566.09
2018-06-17T13:40:22.896Z,100564.46
2018-06-17T13:42:30.062Z,100563.52
2018-06-17T13:44:36.048Z,100561.86
2018-06-17T13:46:42.265Z,100556.27
2018-06-17T13:48:49.483Z,100548.41
2018-06-17T13:50:54.865Z,100550.48
2018-06-17T13:53:00.321Z,100547.84
2018-06-17T13:55:05.694Z,100543.86
2018-06-17T13:57:12.098Z,100554.81
2018-06-17T13:59:17.592Z,100545.63
2018-06-17T14:01:22.928Z,100543.28
2018-06-17T14:03:30.181Z,100549.33
2018-06-17T14:05:35.773Z,100545.98
2018-06-17T14:07:41.248Z,100560.14
2018-06-17T14:09:46.624Z,100555.25
2018-06-17T14:11:51.906Z,100553.21
2018-06-17T14:13:57.269Z,100554.70
2018-06-17T14:16:02.755Z,100553.48
2018-06-17T14:18:08.168Z,100557.03
2018-06-17T14:20:13.513Z,100555.53
2018-06-17T14:22:18.891Z,100556.75
2018-06-17T14:24:24.220Z,100551.39
2018-06-17T14:26:30.725Z,100558.48
2018-06-17T14:28:36.256Z,100556.16
2018-06-17T14:30:41.615Z,100557.00
2018-06-17T14:32:47.193Z,100552.62
2018-06-17T14:34:52.543Z,100553.47
2018-06-17T14:36:58.040Z,100550.45
2018-06-17T14:39:03.439Z,100552.30
2018-06-17T14:41:14.480Z,100550.45
2018-06-17T14:43:25.060Z,100550.76
2018-06-17T14:45:35.713Z,100554.80
2018-06-17T14:47:46.285Z,100552.60
2018-06-17T14:49:56.724Z,100556.62
2018-06-17T14:52:07.391Z,100555.55
2018-06-17T14:54:12.770Z,100556.66
2018-06-17T14:56:18.174Z,100554.62
2018-06-17T14:58:23.624Z,100559.95
2018-06-17T15:00:29.431Z,100559.77
2018-06-17T15:02:34.721Z,100558.22
2018-06-17T15:04:40.052Z,100561.91
2018-06-17T15:06:45.382Z,100560.06
2018-06-17T15:08:50.712Z,100556.73
2018-06-17T15:10:56.057Z,100561.28
2018-06-17T15:13:01.476Z,100557.12
2018-06-17T15:15:07.010Z,100554.81
2018-06-17T15:17:12.320Z,100554.52
2018-06-17T15:19:17.729Z,100558.87
2018-06-17T15:21:23.145Z,100557.70
2018-06-17T15:23:29.600Z,100557.70
2018-06-17T15:25:34.919Z,100557.16
2018-06-17T15:27:40.355Z,100558.13
2018-06-17T15:29:45.755Z,100564.66
2018-06-17T15:31:56.158Z,100563.41
2018-06-17T15:34:06.636Z,100573.44
2018-06-17T15:36:17.230Z,100563.26
2018-06-17T15:38:27.760Z,100562.53
2018-06-17T15:40:38.370Z,100571.91
2018-06-17T15:42:43.478Z,100566.32
2018-06-17T15:44:48.747Z,100568.34
2018-06-17T15:46:54.111Z,100564.25
2018-06-17T15:48:59.496Z,100565.03
2018-06-17T15:51:06.167Z,100575.74
2018-06-17T15:53:11.531Z,100560.47
2018-06-17T15:55:17.849Z,100573.91
2018-06-17T15:57:23.244Z,100573.91
2018-06-17T15:59:29.736Z,100568.96
2018-06-17T16:01:35.077Z,100572.60
2018-06-17T16:03:41.491Z,100572.22
2018-06-17T16:05:46.864Z,100570.66
2018-06-17T16:07:52.888Z,100571.02
2018-06-17T16:09:58.264Z,100570.08
2018-06-17T16:12:08.900Z,100569.97
2018-06-17T16:14:19.331Z,100573.06
2018-06-17T16:16:29.843Z,100577.55
2018-06-17T16:18:40.352Z,100578.27
2018-06-17T16:20:50.880Z,100578.72
2018-06-17T16:22:56.297Z,100583.41
2018-06-17T16:25:01.704Z,100577.83
2018-06-17T16:27:07.096Z,100579.30
2018-06-17T16:29:12.480Z,100582.65
2018-06-17T16:31:17.780Z,100580.59
2018-06-17T16:33:23.142Z,100578.91
2018-06-17T16:35:29.791Z,100581.94
2018-06-17T16:37:34.825Z,100579.75
2018-06-17T16:39:40.056Z,100583.28
2018-06-17T16:41:45.398Z,100583.64
2018-06-17T16:43:50.394Z,100584.98
2018-06-17T16:45:55.698Z,100594.59
2018-06-17T16:48:01.077Z,100591.91
2018-06-17T16:50:06.490Z,100591.91
2018-06-17T16:52:16.796Z,100593.57
2018-06-17T16:54:27.249Z,100594.72
2018-06-17T16:56:37.798Z,100591.69
2018-06-17T16:58:48.318Z,100591.33
2018-06-17T17:00:53.762Z,100588.95
2018-06-17T17:02:59.121Z,100593.75
2018-06-17T17:05:04.610Z,100591.38
2018-06-17T17:07:09.969Z,100591.97
2018-06-17T17:09:15.381Z,100593.83
2018-06-17T17:11:20.813Z,100598.34
2018-06-17T17:13:26.246Z,100594.33
2018-06-17T17:15:32.499Z,100598.67
2018-06-17T17:17:37.946Z,100605.06
2018-06-17T17:19:42.957Z,100603.50
2018-06-17T17:21:49.262Z,100607.25
2018-06-17T17:23:54.610Z,100605.91
2018-06-17T17:26:00.620Z,100607.96
2018-06-17T17:28:06.081Z,100607.83
2018-06-17T17:30:11.520Z,100608.02
2018-06-17T17:32:22.167Z,100614.39
2018-06-17T17:34:32.627Z,100622.23
2018-06-17T17:36:43.060Z,100612.89
2018-06-17T17:41:01.858Z,100622.09
2018-06-17T17:43:09.252Z,100618.98
2018-06-17T17:45:17.814Z,100621.25
2018-06-17T17:47:25.714Z,100628.88
2018-06-17T17:49:31.096Z,100620.59
2018-06-17T17:51:36.432Z,100629.03
2018-06-17T17:53:41.822Z,100634.20
2018-06-17T17:55:47.191Z,100636.39
2018-06-17T17:57:52.476Z,100644.20
2018-06-17T17:59:57.818Z,100645.84
2018-06-17T18:02:03.171Z,100646.63
2018-06-17T18:04:08.559Z,100649.22
2018-06-17T18:06:13.988Z,100659.61
2018-06-17T18:08:19.467Z,100659.25
2018-06-17T18:10:24.831Z,100662.81
2018-06-17T18:12:30.234Z,100661.38
2018-06-17T18:14:36.746Z,100667.66
2018-06-17T18:16:44.055Z,100664.55
2018-06-17T18:18:49.496Z,100670.33
2018-06-17T18:20:55.902Z,100676.83
2018-06-17T18:23:01.257Z,100677.08
2018-06-17T18:25:12.163Z,100679.92
2018-06-17T18:27:22.785Z,100676.03
2018-06-17T18:29:33.297Z,100680.17
2018-06-17T18:31:43.927Z,100684.48
2018-06-17T18:33:54.489Z,100687.09
2018-06-17T18:36:04.751Z,100680.34
2018-06-17T18:38:10.049Z,100697.42
2018-06-17T18:40:16.364Z,100702.67
2018-06-17T18:42:21.849Z,100704.91
2018-06-17T18:44:27.850Z,100713.09
2018-06-17T18:46:33.196Z,100706.45
2018-06-17T18:48:38.679Z,100713.77
2018-06-17T18:50:44.095Z,100717.34
2018-06-17T18:52:49.576Z,100715.55
2018-06-17T18:54:55.074Z,100717.30
2018-06-17T18:57:00.552Z,100711.98
2018-06-17T18:59:06.228Z,100716.89
2018-06-17T19:01:11.677Z,100716.31
2018-06-17T19:03:17.100Z,100718.63
2018-06-17T19:05:22.589Z,100722.52
2018-06-17T19:07:28.055Z,100721.17
2018-06-17T19:09:38.655Z,100723.98
2018-06-17T19:11:49.208Z,100722.40
2018-06-17T19:16:01.906Z,100729.48
2018-06-17T19:18:10.357Z,100736.91
2018-06-17T19:20:15.785Z,100739.33
2018-06-17T19:22:21.255Z,100737.53
2018-06-17T19:24:26.659Z,100749.36
2018-06-17T19:26:32.125Z,100753.13
2018-06-17T19:28:37.564Z,100754.23
2018-06-17T19:30:43.009Z,100754.36
2018-06-17T19:32:48.439Z,100749.62
2018-06-17T19:34:53.856Z,100751.10
2018-06-17T19:36:59.242Z,100759.84
2018-06-17T19:39:06.781Z,100758.89
2018-06-17T19:41:12.218Z,100753.94
2018-06-17T19:43:17.647Z,100760.63
2018-06-17T19:45:28.105Z,100765.14
2018-06-17T19:47:33.457Z,100770.17
2018-06-17T19:49:43.856Z,100775.52
2018-06-17T19:51:54.346Z,100770.67
2018-06-17T19:54:05.723Z,100777.48
2018-06-17T19:56:16.324Z,100776.59
2018-06-17T19:58:26.847Z,100780.86
2018-06-17T20:00:34.057Z,100779.75
2018-06-17T20:02:39.135Z,100785.09
2018-06-17T20:04:44.108Z,100778.94
2018-06-17T20:06:49.456Z,100785.47
2018-06-17T20:08:54.846Z,100794.45
2018-06-17T20:11:00.201Z,100789.96
2018-06-17T20:13:05.324Z,100788.41
2018-06-17T20:15:10.793Z,100788.88
2018-06-17T20:17:16.330Z,100785.73
2018-06-17T20:19:21.665Z,100780.88
2018-06-17T20:21:27.019Z,100785.62
2018-06-17T20:23:32.475Z,100785.36
2018-06-17T20:25:37.902Z,100785.61
2018-06-17T20:27:43.368Z,100786.95
2018-06-17T20:29:48.771Z,100791.66
2018-06-17T20:31:59.473Z,100788.14
2018-06-17T20:34:10.157Z,100788.63
2018-06-17T20:36:20.553Z,100787.44
2018-06-17T20:38:30.976Z,100791.55
2018-06-17T20:40:41.353Z,100797.38
2018-06-17T20:42:51.826Z,100801.98
2018-06-17T20:44:57.212Z,100803.83
2018-06-17T20:47:02.678Z,100802.61
2018-06-17T20:49:08.813Z,100799.56
2018-06-17T20:51:14.245Z,100798.83
2018-06-17T20:53:19.659Z,100800.68
2018-06-17T20:55:25.047Z,100803.83
2018-06-17T20:57:30.541Z,100807.84
2018-06-17T20:59:35.906Z,100802.02
2018-06-17T21:01:41.347Z,100800.05
2018-06-17T21:03:46.885Z,100802.13
2018-06-17T21:05:52.346Z,100805.88
2018-06-17T21:07:57.768Z,100813.17
2018-06-17T21:10:03.230Z,100804.91
2018-06-17T21:12:08.915Z,100810.39
2018-06-17T21:14:14.463Z,100817.41
2018-06-17T21:16:20.477Z,100812.20
2018-06-17T21:18:31.042Z,100808.05
2018-06-17T21:20:41.696Z,100821.77
2018-06-17T21:22:52.376Z,100826.24
2018-06-17T21:25:02.825Z,100822.85
2018-06-17T21:27:14.081Z,100828.18
2018-06-17T21:29:19.423Z,100831.31
2018-06-17T21:31:25.709Z,100835.16
2018-06-17T21:33:31.072Z,100834.55
2018-06-17T21:35:36.393Z,100836.48
2018-06-17T21:37:41.824Z,100838.06
2018-06-17T21:39:47.481Z,100835.12
2018-06-17T21:41:52.786Z,100836.70
2018-06-17T21:43:58.160Z,100841.89
2018-06-17T21:46:03.526Z,100842.98
2018-06-17T21:48:09.533Z,100839.09
2018-06-17T21:50:14.924Z,100845.38
2018-06-17T21:52:20.319Z,100849.52
2018-06-17T21:54:25.788Z,100850.97
2018-06-17T21:56:31.133Z,100850.22
2018-06-17T21:58:41.423Z,100851.18
2018-06-17T22:00:46.804Z,100856.75
2018-06-17T22:02:52.191Z,100852.38
2018-06-17T22:04:57.564Z,100859.53
2018-06-17T22:07:02.973Z,100860.01
2018-06-17T22:09:14.695Z,100857.34
2018-06-17T22:11:25.094Z,100864.01
2018-06-17T22:13:35.545Z,100866.67
2018-06-17T22:15:46.185Z,100862.33
2018-06-17T22:17:52.240Z,100860.63
2018-06-17T22:19:57.581Z,100858.17
2018-06-17T22:22:02.897Z,100862.78
2018-06-17T22:24:09.059Z,100863.84
2018-06-17T22:26:14.420Z,100864.20
2018-06-17T22:28:19.718Z,100866.63
2018-06-17T22:30:25.058Z,100873.98
2018-06-17T22:32:30.374Z,100872.50
2018-06-17T22:34:35.841Z,100876.27
2018-06-17T22:36:41.158Z,100873.80
2018-06-17T22:38:46.473Z,100881.08
2018-06-17T22:40:51.748Z,100878.05
2018-06-17T22:42:57.127Z,100884.81
2018-06-17T22:45:02.449Z,100882.14
2018-06-17T22:47:09.019Z,100883.58
2018-06-17T22:49:14.067Z,100883.95
2018-06-17T22:51:19.427Z,100883.58
2018-06-17T22:53:41.654Z,100882.25
2018-06-17T22:55:46.985Z,100889.28
2018-06-17T22:57:57.525Z,100891.95
2018-06-17T23:00:07.873Z,100897.38
2018-06-17T23:02:18.215Z,100893.59
2018-06-17T23:04:28.819Z,100898.55
2018-06-17T23:06:39.127Z,100895.50
2018-06-17T23:08:49.690Z,100887.64
2018-06-17T23:10:55.035Z,100890.17
2018-06-17T23:13:00.427Z,100886.17
2018-06-17T23:15:05.857Z,100887.88
2018-06-17T23:17:11.161Z,100887.30
2018-06-17T23:19:16.620Z,100890.83
2018-06-17T23:21:21.900Z,100893.89
2018-06-17T23:23:27.196Z,100884.91
2018-06-17T23:25:32.578Z,100891.95
2018-06-17T23:27:37.881Z,100891.47
2018-06-17T23:29:43.176Z,100890.14
2018-06-17T23:31:48.608Z,100888.91
2018-06-17T23:33:53.908Z,100888.56
2018-06-17T23:35:59.221Z,100891.03
2018-06-17T23:38:04.517Z,100887.16
2018-06-17T23:40:09.948Z,100893.17
2018-06-17T23:42:15.299Z,100893.79
2018-06-17T23:44:20.270Z,100891.22
2018-06-17T23:46:30.765Z,100893.03
2018-06-17T23:48:41.264Z,100897.88
2018-06-17T23:50:51.716Z,100903.59
2018-06-17T23:53:02.205Z,100907.59
2018-06-17T23:55:12.624Z,100901.30
2018-06-17T23:59:21.643Z,100910.64
